LGRPLGKO

Guest
Details From LGRP - DIAGORAS
To LGKO - KOS
Flight Number -
Tags generated
Created
Modified
Stats Distance 54 nm / 100 km
Max Altitude 2,400 ft / 732 m
Waypoints 3
Social Downloads 3
Likes 0
Share VATSIM

Download

Looking for another format? Having issues loading an existing format? Contact us
Advertisement - Login to hide

Notes

Basic altitude profile: - Ascent Rate: 2500ft/min - Ascent Speed: 250kts - Cruise Altitude: 35000ft - Cruise Speed: 420kts - Descent Rate: 1500ft/min - Descent Speed: 250kts Options: - Use NATs: yes - Use PACOTS: yes - Use low airways: yes - Use high airways: yes

Route

LGRP BANRO LGKO

ID Type Via Altitude Latitude Longitude Leg Dist Tot Dist Heading (true) Name
O LGRP APT - 0 ft / 0 m 36.40542˚ 28.08619˚ - 0 nm - DIAGORAS
BANRO FIX - 2,400 ft / 732 m 36.49472˚ 27.99528˚ 6 nm 6 nm 321° / 321° -
O LGKO APT - 0 ft / 0 m 36.79440˚ 27.09076˚ 47 nm 54 nm 293° / 292° KOS

Altitude Profile

Advertisement - Login to hide

LGRP

Details ICAO LGRP (RHO)
Name DIAGORAS
Region Greece
Timezone Europe/Athens (UTC+2.0)
Stats Elevation 17 ft / 5 m (AMSL)
Location 36.405420° 28.086193°
Runways 1
Magnetic Variation 4.779° E

METAR

LGRP 120820Z 00000KT 9999 FEW018 18/14 Q1024 NOSIG

Decode

TAF

TAF LGRP 120500Z 1206/1306 VRB03KT 9999 FEW018 SCT025 BECMG 1212/1214 28013KT FEW018

Decode

Departure Runways

ID Width Length Bearing (true) Bearing (mag) Surface Threshold Offset Overrun Length
07 148 ft / 45 m 10,830 ft / 3,301 m 69.97° 65.19° Asphalt 0 ft / 0 m 0 ft / 0 m
25 148 ft / 45 m 10,830 ft / 3,301 m 249.99° 245.21° Asphalt 0 ft / 0 m 0 ft / 0 m

LGKO

Details ICAO LGKO (KGS)
Name KOS
Region Greece
Timezone Europe/Athens (UTC+2.0)
Stats Elevation 412 ft / 126 m (AMSL)
Location 36.794403° 27.090764°
Runways 1
Magnetic Variation 4.723° E

METAR

LGKO 120820Z 15004KT 9999 FEW015 SCT025 18/13 Q1024

Decode

TAF

TAF LGKO 120500Z 1206/1306 VRB03KT 9999 FEW016 BECMG 1215/1217 31012KT

Decode

Destination Runways

ID Width Length Bearing (true) Bearing (mag) Surface Threshold Offset Overrun Length
14 148 ft / 45 m 7,923 ft / 2,415 m 148.29° 143.57° Asphalt 0 ft / 0 m 240 ft / 73 m
32 148 ft / 45 m 7,923 ft / 2,415 m 328.30° 323.58° Asphalt 0 ft / 0 m 205 ft / 62 m

Popular Alternatives